McConnelsville, Ohio
Current Conditions -  °F | °C
As of 11:53 PM on Wednesday 22 Oct 2014 (Local Time) from KZZV Reporting Station
Clear Clear  
Wind Chill: 43°   Ceiling: Unl
Heat Index: 45°   Visibility: 10mi
Dew Point: 39°   Wind: 5mph
Humidity: 80%   Direction: 310°NW
Pressure: 30.22"   Gusts: NA
Location:  39.65°N, 81.85°W
Report Text: KZZV 230353Z AUTO 31004KT 10SM CLR 07/04 A3022 RMK AO2 SLP235 T00720039
Loading
Personal Weather Stations






























Interactive Weather Map
Tropical Storm Tracking
New forecast layout! Learn more

10-Day Weather Forecast

Advertisements
Track Severe Weather on mobile